sensor_id;sensor_type;location;lat;lon;timestamp;P1;durP1;ratioP1;P2;durP2;ratioP2
4583;SDS011;2304;47.606;12.186;2023-07-31T00:02:05;5.80;;;2.97;;
4583;SDS011;2304;47.606;12.186;2023-07-31T00:07:08;4.70;;;3.00;;
4583;SDS011;2304;47.606;12.186;2023-07-31T00:12:10;8.40;;;3.20;;
4583;SDS011;2304;47.606;12.186;2023-07-31T00:17:12;5.23;;;2.50;;
4583;SDS011;2304;47.606;12.186;2023-07-31T00:22:16;6.50;;;3.40;;
4583;SDS011;2304;47.606;12.186;2023-07-31T00:27:17;8.53;;;3.20;;
4583;SDS011;2304;47.606;12.186;2023-07-31T00:32:19;6.67;;;3.57;;
4583;SDS011;2304;47.606;12.186;2023-07-31T00:37:22;4.30;;;3.00;;
4583;SDS011;2304;47.606;12.186;2023-07-31T00:42:24;5.27;;;3.30;;
4583;SDS011;2304;47.606;12.186;2023-07-31T00:47:26;4.13;;;2.60;;
4583;SDS011;2304;47.606;12.186;2023-07-31T00:52:29;4.50;;;3.10;;
4583;SDS011;2304;47.606;12.186;2023-07-31T00:57:31;4.57;;;3.10;;
4583;SDS011;2304;47.606;12.186;2023-07-31T01:02:34;5.07;;;3.07;;
4583;SDS011;2304;47.606;12.186;2023-07-31T01:07:39;10.80;;;3.20;;
4583;SDS011;2304;47.606;12.186;2023-07-31T01:12:46;15.50;;;3.40;;
4583;SDS011;2304;47.606;12.186;2023-07-31T01:17:49;4.37;;;2.70;;
4583;SDS011;2304;47.606;12.186;2023-07-31T01:28:53;6.50;;;3.10;;
4583;SDS011;2304;47.606;12.186;2023-07-31T01:34:01;9.73;;;3.30;;
4583;SDS011;2304;47.606;12.186;2023-07-31T01:39:04;5.97;;;3.20;;
4583;SDS011;2304;47.606;12.186;2023-07-31T01:44:07;6.00;;;3.37;;
4583;SDS011;2304;47.606;12.186;2023-07-31T01:49:09;7.70;;;2.97;;
4583;SDS011;2304;47.606;12.186;2023-07-31T01:54:11;7.40;;;3.07;;
4583;SDS011;2304;47.606;12.186;2023-07-31T01:59:14;5.57;;;2.90;;
4583;SDS011;2304;47.606;12.186;2023-07-31T02:04:16;5.40;;;2.90;;
4583;SDS011;2304;47.606;12.186;2023-07-31T02:09:18;8.37;;;4.00;;
4583;SDS011;2304;47.606;12.186;2023-07-31T02:14:21;10.47;;;3.40;;
4583;SDS011;2304;47.606;12.186;2023-07-31T02:19:23;10.00;;;3.80;;
4583;SDS011;2304;47.606;12.186;2023-07-31T02:24:25;6.37;;;3.20;;
4583;SDS011;2304;47.606;12.186;2023-07-31T02:29:28;13.50;;;3.80;;
4583;SDS011;2304;47.606;12.186;2023-07-31T02:34:30;5.57;;;3.33;;
4583;SDS011;2304;47.606;12.186;2023-07-31T02:39:32;5.47;;;3.10;;
4583;SDS011;2304;47.606;12.186;2023-07-31T02:44:35;5.70;;;3.60;;
4583;SDS011;2304;47.606;12.186;2023-07-31T02:49:37;6.87;;;3.87;;
4583;SDS011;2304;47.606;12.186;2023-07-31T02:54:39;9.03;;;3.70;;
4583;SDS011;2304;47.606;12.186;2023-07-31T02:59:42;5.77;;;3.00;;
4583;SDS011;2304;47.606;12.186;2023-07-31T03:04:44;8.13;;;3.50;;
4583;SDS011;2304;47.606;12.186;2023-07-31T03:09:45;5.47;;;3.50;;
4583;SDS011;2304;47.606;12.186;2023-07-31T03:14:49;7.27;;;3.30;;
4583;SDS011;2304;47.606;12.186;2023-07-31T03:19:51;8.77;;;3.60;;
4583;SDS011;2304;47.606;12.186;2023-07-31T03:24:53;7.67;;;3.63;;
4583;SDS011;2304;47.606;12.186;2023-07-31T03:29:56;7.00;;;3.57;;
4583;SDS011;2304;47.606;12.186;2023-07-31T03:34:59;8.53;;;3.80;;
4583;SDS011;2304;47.606;12.186;2023-07-31T03:40:01;7.77;;;3.50;;
4583;SDS011;2304;47.606;12.186;2023-07-31T03:45:07;7.87;;;3.23;;
4583;SDS011;2304;47.606;12.186;2023-07-31T03:50:09;9.20;;;3.57;;
4583;SDS011;2304;47.606;12.186;2023-07-31T03:55:11;8.07;;;3.37;;
4583;SDS011;2304;47.606;12.186;2023-07-31T04:00:14;5.53;;;3.17;;
4583;SDS011;2304;47.606;12.186;2023-07-31T04:05:16;5.83;;;4.00;;
4583;SDS011;2304;47.606;12.186;2023-07-31T04:10:18;10.53;;;4.00;;
4583;SDS011;2304;47.606;12.186;2023-07-31T04:15:21;5.70;;;4.13;;
4583;SDS011;2304;47.606;12.186;2023-07-31T04:20:23;7.23;;;3.90;;
4583;SDS011;2304;47.606;12.186;2023-07-31T04:25:25;6.97;;;3.73;;
4583;SDS011;2304;47.606;12.186;2023-07-31T04:30:28;6.87;;;4.27;;
4583;SDS011;2304;47.606;12.186;2023-07-31T04:35:30;7.50;;;4.70;;
4583;SDS011;2304;47.606;12.186;2023-07-31T04:40:32;7.87;;;5.20;;
4583;SDS011;2304;47.606;12.186;2023-07-31T04:45:35;11.90;;;5.07;;
4583;SDS011;2304;47.606;12.186;2023-07-31T04:50:37;7.20;;;4.73;;
4583;SDS011;2304;47.606;12.186;2023-07-31T04:55:39;6.63;;;4.20;;
4583;SDS011;2304;47.606;12.186;2023-07-31T05:00:42;8.27;;;4.43;;
4583;SDS011;2304;47.606;12.186;2023-07-31T05:05:44;6.53;;;4.57;;
4583;SDS011;2304;47.606;12.186;2023-07-31T05:10:45;9.23;;;4.30;;
4583;SDS011;2304;47.606;12.186;2023-07-31T05:15:49;6.57;;;4.30;;
4583;SDS011;2304;47.606;12.186;2023-07-31T05:20:50;6.47;;;4.30;;
4583;SDS011;2304;47.606;12.186;2023-07-31T05:25:52;6.60;;;4.07;;
4583;SDS011;2304;47.606;12.186;2023-07-31T05:30:59;6.03;;;4.03;;
4583;SDS011;2304;47.606;12.186;2023-07-31T05:36:01;8.60;;;5.00;;
4583;SDS011;2304;47.606;12.186;2023-07-31T05:41:03;5.30;;;4.17;;
4583;SDS011;2304;47.606;12.186;2023-07-31T05:46:07;8.37;;;4.50;;
4583;SDS011;2304;47.606;12.186;2023-07-31T05:51:09;5.37;;;4.23;;
4583;SDS011;2304;47.606;12.186;2023-07-31T05:56:11;6.67;;;4.10;;
4583;SDS011;2304;47.606;12.186;2023-07-31T06:01:14;10.00;;;4.20;;
4583;SDS011;2304;47.606;12.186;2023-07-31T06:06:17;5.77;;;4.47;;
4583;SDS011;2304;47.606;12.186;2023-07-31T06:11:19;6.47;;;3.80;;
4583;SDS011;2304;47.606;12.186;2023-07-31T06:16:23;7.53;;;3.93;;
4583;SDS011;2304;47.606;12.186;2023-07-31T06:21:24;9.70;;;3.80;;
4583;SDS011;2304;47.606;12.186;2023-07-31T06:26:26;6.97;;;3.77;;
4583;SDS011;2304;47.606;12.186;2023-07-31T06:31:30;9.33;;;4.30;;
4583;SDS011;2304;47.606;12.186;2023-07-31T06:36:31;8.13;;;3.87;;
4583;SDS011;2304;47.606;12.186;2023-07-31T06:41:33;9.63;;;4.23;;
4583;SDS011;2304;47.606;12.186;2023-07-31T06:46:36;8.03;;;3.80;;
4583;SDS011;2304;47.606;12.186;2023-07-31T06:51:38;5.80;;;3.73;;
4583;SDS011;2304;47.606;12.186;2023-07-31T06:56:40;6.30;;;4.40;;
4583;SDS011;2304;47.606;12.186;2023-07-31T07:01:43;6.63;;;3.83;;
4583;SDS011;2304;47.606;12.186;2023-07-31T07:06:45;10.80;;;4.07;;
4583;SDS011;2304;47.606;12.186;2023-07-31T07:11:47;7.87;;;4.50;;
4583;SDS011;2304;47.606;12.186;2023-07-31T07:16:51;5.70;;;3.77;;
4583;SDS011;2304;47.606;12.186;2023-07-31T07:21:53;5.37;;;3.80;;
4583;SDS011;2304;47.606;12.186;2023-07-31T07:26:56;5.80;;;3.63;;
4583;SDS011;2304;47.606;12.186;2023-07-31T07:31:59;8.03;;;4.13;;
4583;SDS011;2304;47.606;12.186;2023-07-31T07:37:01;12.83;;;4.20;;
4583;SDS011;2304;47.606;12.186;2023-07-31T07:42:03;7.00;;;3.43;;
4583;SDS011;2304;47.606;12.186;2023-07-31T07:47:06;8.37;;;3.70;;
4583;SDS011;2304;47.606;12.186;2023-07-31T07:52:08;9.27;;;3.37;;
4583;SDS011;2304;47.606;12.186;2023-07-31T07:57:10;4.57;;;3.47;;
4583;SDS011;2304;47.606;12.186;2023-07-31T08:02:13;10.00;;;4.43;;
4583;SDS011;2304;47.606;12.186;2023-07-31T08:07:15;7.10;;;4.00;;
4583;SDS011;2304;47.606;12.186;2023-07-31T08:12:17;5.83;;;3.40;;
4583;SDS011;2304;47.606;12.186;2023-07-31T08:17:20;6.20;;;3.43;;
4583;SDS011;2304;47.606;12.186;2023-07-31T08:22:22;5.60;;;3.50;;
4583;SDS011;2304;47.606;12.186;2023-07-31T08:27:24;6.30;;;4.43;;
4583;SDS011;2304;47.606;12.186;2023-07-31T08:32:27;5.23;;;3.67;;
4583;SDS011;2304;47.606;12.186;2023-07-31T08:37:29;7.47;;;3.60;;
4583;SDS011;2304;47.606;12.186;2023-07-31T08:42:31;8.60;;;3.50;;
4583;SDS011;2304;47.606;12.186;2023-07-31T08:47:34;15.27;;;3.97;;
4583;SDS011;2304;47.606;12.186;2023-07-31T08:52:37;5.50;;;3.57;;
4583;SDS011;2304;47.606;12.186;2023-07-31T08:57:39;6.37;;;3.43;;
4583;SDS011;2304;47.606;12.186;2023-07-31T09:02:45;6.50;;;3.73;;
4583;SDS011;2304;47.606;12.186;2023-07-31T09:07:49;5.20;;;3.27;;
4583;SDS011;2304;47.606;12.186;2023-07-31T09:12:52;6.17;;;3.70;;
4583;SDS011;2304;47.606;12.186;2023-07-31T09:17:59;5.40;;;3.80;;
4583;SDS011;2304;47.606;12.186;2023-07-31T09:23:05;5.40;;;3.73;;
4583;SDS011;2304;47.606;12.186;2023-07-31T09:28:09;8.13;;;3.20;;
4583;SDS011;2304;47.606;12.186;2023-07-31T09:33:12;5.27;;;3.77;;
4583;SDS011;2304;47.606;12.186;2023-07-31T09:38:15;5.33;;;3.53;;
4583;SDS011;2304;47.606;12.186;2023-07-31T09:43:18;4.60;;;3.30;;
4583;SDS011;2304;47.606;12.186;2023-07-31T09:48:23;4.10;;;2.50;;
4583;SDS011;2304;47.606;12.186;2023-07-31T09:53:28;3.80;;;2.83;;
4583;SDS011;2304;47.606;12.186;2023-07-31T09:58:31;3.50;;;2.80;;
4583;SDS011;2304;47.606;12.186;2023-07-31T10:03:37;4.93;;;3.10;;
4583;SDS011;2304;47.606;12.186;2023-07-31T10:08:40;4.40;;;2.97;;
4583;SDS011;2304;47.606;12.186;2023-07-31T10:13:43;10.00;;;3.67;;
4583;SDS011;2304;47.606;12.186;2023-07-31T10:18:47;5.17;;;2.87;;
4583;SDS011;2304;47.606;12.186;2023-07-31T10:23:50;3.83;;;2.80;;
4583;SDS011;2304;47.606;12.186;2023-07-31T10:28:52;5.00;;;3.37;;
4583;SDS011;2304;47.606;12.186;2023-07-31T10:33:57;5.20;;;3.23;;
4583;SDS011;2304;47.606;12.186;2023-07-31T10:39:02;4.70;;;3.40;;
4583;SDS011;2304;47.606;12.186;2023-07-31T10:44:05;7.73;;;3.27;;
4583;SDS011;2304;47.606;12.186;2023-07-31T10:49:10;9.10;;;3.80;;
4583;SDS011;2304;47.606;12.186;2023-07-31T10:54:22;8.40;;;3.50;;
4583;SDS011;2304;47.606;12.186;2023-07-31T10:59:26;4.30;;;2.87;;
4583;SDS011;2304;47.606;12.186;2023-07-31T11:04:29;7.63;;;3.60;;
4583;SDS011;2304;47.606;12.186;2023-07-31T11:09:33;5.70;;;2.80;;
4583;SDS011;2304;47.606;12.186;2023-07-31T11:14:35;4.63;;;3.07;;
4583;SDS011;2304;47.606;12.186;2023-07-31T11:19:38;5.30;;;3.40;;
4583;SDS011;2304;47.606;12.186;2023-07-31T11:24:40;4.60;;;3.43;;
4583;SDS011;2304;47.606;12.186;2023-07-31T11:29:42;7.33;;;3.10;;
4583;SDS011;2304;47.606;12.186;2023-07-31T11:34:52;5.53;;;2.50;;
4583;SDS011;2304;47.606;12.186;2023-07-31T11:40:00;4.67;;;3.00;;
4583;SDS011;2304;47.606;12.186;2023-07-31T11:45:02;6.93;;;3.47;;
4583;SDS011;2304;47.606;12.186;2023-07-31T11:50:11;4.10;;;2.90;;
4583;SDS011;2304;47.606;12.186;2023-07-31T11:55:13;5.37;;;2.87;;
4583;SDS011;2304;47.606;12.186;2023-07-31T12:00:15;4.73;;;2.90;;
4583;SDS011;2304;47.606;12.186;2023-07-31T12:05:20;5.10;;;2.95;;
4583;SDS011;2304;47.606;12.186;2023-07-31T12:10:24;5.60;;;2.90;;
4583;SDS011;2304;47.606;12.186;2023-07-31T12:20:49;5.90;;;2.70;;
4583;SDS011;2304;47.606;12.186;2023-07-31T12:26:01;4.90;;;3.10;;
4583;SDS011;2304;47.606;12.186;2023-07-31T12:31:04;5.97;;;2.70;;
4583;SDS011;2304;47.606;12.186;2023-07-31T12:36:09;3.77;;;2.73;;
4583;SDS011;2304;47.606;12.186;2023-07-31T12:41:12;5.60;;;2.97;;
4583;SDS011;2304;47.606;12.186;2023-07-31T12:46:36;4.80;;;3.10;;
4583;SDS011;2304;47.606;12.186;2023-07-31T12:51:38;6.70;;;2.83;;
4583;SDS011;2304;47.606;12.186;2023-07-31T12:56:40;4.47;;;2.97;;
4583;SDS011;2304;47.606;12.186;2023-07-31T13:01:43;5.10;;;3.17;;
4583;SDS011;2304;47.606;12.186;2023-07-31T13:06:45;4.23;;;3.10;;
4583;SDS011;2304;47.606;12.186;2023-07-31T13:11:47;4.77;;;2.50;;
4583;SDS011;2304;47.606;12.186;2023-07-31T13:16:50;5.43;;;2.60;;
4583;SDS011;2304;47.606;12.186;2023-07-31T13:21:52;4.93;;;2.77;;
4583;SDS011;2304;47.606;12.186;2023-07-31T13:26:55;4.43;;;2.80;;
4583;SDS011;2304;47.606;12.186;2023-07-31T13:31:58;5.90;;;2.90;;
4583;SDS011;2304;47.606;12.186;2023-07-31T13:37:00;3.57;;;2.70;;
4583;SDS011;2304;47.606;12.186;2023-07-31T13:42:02;4.80;;;2.97;;
4583;SDS011;2304;47.606;12.186;2023-07-31T13:47:08;4.83;;;2.73;;
4583;SDS011;2304;47.606;12.186;2023-07-31T13:52:10;9.00;;;3.13;;
4583;SDS011;2304;47.606;12.186;2023-07-31T13:57:12;7.00;;;3.00;;
4583;SDS011;2304;47.606;12.186;2023-07-31T14:02:15;4.90;;;3.00;;
4583;SDS011;2304;47.606;12.186;2023-07-31T14:07:17;7.70;;;2.80;;
4583;SDS011;2304;47.606;12.186;2023-07-31T14:12:19;5.43;;;3.00;;
4583;SDS011;2304;47.606;12.186;2023-07-31T14:17:22;4.93;;;2.97;;
4583;SDS011;2304;47.606;12.186;2023-07-31T14:22:27;5.23;;;2.70;;
4583;SDS011;2304;47.606;12.186;2023-07-31T14:27:30;4.95;;;3.00;;
4583;SDS011;2304;47.606;12.186;2023-07-31T14:32:33;4.67;;;2.80;;
4583;SDS011;2304;47.606;12.186;2023-07-31T14:37:37;6.57;;;3.13;;
4583;SDS011;2304;47.606;12.186;2023-07-31T14:42:40;5.50;;;3.27;;
4583;SDS011;2304;47.606;12.186;2023-07-31T14:47:43;5.30;;;3.30;;
4583;SDS011;2304;47.606;12.186;2023-07-31T14:52:45;5.27;;;2.87;;
4583;SDS011;2304;47.606;12.186;2023-07-31T14:57:47;8.00;;;3.10;;
4583;SDS011;2304;47.606;12.186;2023-07-31T15:02:50;5.77;;;2.90;;
4583;SDS011;2304;47.606;12.186;2023-07-31T15:07:52;5.60;;;2.90;;
4583;SDS011;2304;47.606;12.186;2023-07-31T15:12:54;6.80;;;3.20;;
4583;SDS011;2304;47.606;12.186;2023-07-31T15:17:57;8.00;;;3.00;;
4583;SDS011;2304;47.606;12.186;2023-07-31T15:22:59;6.70;;;2.80;;
4583;SDS011;2304;47.606;12.186;2023-07-31T15:28:01;5.53;;;2.70;;
4583;SDS011;2304;47.606;12.186;2023-07-31T15:33:04;4.97;;;2.53;;
4583;SDS011;2304;47.606;12.186;2023-07-31T15:38:06;5.53;;;2.90;;
4583;SDS011;2304;47.606;12.186;2023-07-31T15:43:07;4.17;;;2.70;;
4583;SDS011;2304;47.606;12.186;2023-07-31T15:48:11;6.15;;;2.55;;
4583;SDS011;2304;47.606;12.186;2023-07-31T15:53:13;3.53;;;2.73;;
4583;SDS011;2304;47.606;12.186;2023-07-31T15:58:14;3.70;;;2.60;;
4583;SDS011;2304;47.606;12.186;2023-07-31T16:03:18;6.03;;;3.50;;
4583;SDS011;2304;47.606;12.186;2023-07-31T16:08:21;4.70;;;3.00;;
4583;SDS011;2304;47.606;12.186;2023-07-31T16:13:23;4.27;;;3.30;;
4583;SDS011;2304;47.606;12.186;2023-07-31T16:18:26;7.13;;;2.90;;
4583;SDS011;2304;47.606;12.186;2023-07-31T16:23:28;4.53;;;3.20;;
4583;SDS011;2304;47.606;12.186;2023-07-31T16:28:30;8.90;;;4.07;;
4583;SDS011;2304;47.606;12.186;2023-07-31T16:33:33;5.20;;;3.30;;
4583;SDS011;2304;47.606;12.186;2023-07-31T16:38:35;4.40;;;2.93;;
4583;SDS011;2304;47.606;12.186;2023-07-31T16:43:37;5.00;;;3.00;;
4583;SDS011;2304;47.606;12.186;2023-07-31T16:48:40;4.50;;;2.90;;
4583;SDS011;2304;47.606;12.186;2023-07-31T16:53:42;6.00;;;2.83;;
4583;SDS011;2304;47.606;12.186;2023-07-31T16:58:43;3.90;;;2.80;;
4583;SDS011;2304;47.606;12.186;2023-07-31T17:03:47;4.30;;;2.60;;
4583;SDS011;2304;47.606;12.186;2023-07-31T17:08:49;4.30;;;3.00;;
4583;SDS011;2304;47.606;12.186;2023-07-31T17:13:50;4.23;;;2.80;;
4583;SDS011;2304;47.606;12.186;2023-07-31T17:18:54;5.37;;;3.20;;
4583;SDS011;2304;47.606;12.186;2023-07-31T17:23:56;4.97;;;2.73;;
4583;SDS011;2304;47.606;12.186;2023-07-31T17:28:57;7.30;;;3.23;;
4583;SDS011;2304;47.606;12.186;2023-07-31T17:34:01;4.97;;;3.10;;
4583;SDS011;2304;47.606;12.186;2023-07-31T17:39:04;6.00;;;3.53;;
4583;SDS011;2304;47.606;12.186;2023-07-31T17:44:05;4.23;;;3.00;;
4583;SDS011;2304;47.606;12.186;2023-07-31T17:49:09;6.07;;;2.83;;
4583;SDS011;2304;47.606;12.186;2023-07-31T17:54:11;6.10;;;3.30;;
4583;SDS011;2304;47.606;12.186;2023-07-31T17:59:13;5.20;;;3.17;;
4583;SDS011;2304;47.606;12.186;2023-07-31T18:04:16;4.17;;;2.70;;
4583;SDS011;2304;47.606;12.186;2023-07-31T18:09:18;5.60;;;3.10;;
4583;SDS011;2304;47.606;12.186;2023-07-31T18:14:20;6.67;;;3.30;;
4583;SDS011;2304;47.606;12.186;2023-07-31T18:19:26;5.03;;;3.00;;
4583;SDS011;2304;47.606;12.186;2023-07-31T18:24:28;7.20;;;3.47;;
4583;SDS011;2304;47.606;12.186;2023-07-31T18:29:30;6.47;;;3.60;;
4583;SDS011;2304;47.606;12.186;2023-07-31T18:34:33;6.17;;;3.40;;
4583;SDS011;2304;47.606;12.186;2023-07-31T18:39:35;5.53;;;3.50;;
4583;SDS011;2304;47.606;12.186;2023-07-31T18:44:37;6.03;;;3.30;;
4583;SDS011;2304;47.606;12.186;2023-07-31T18:49:40;6.17;;;3.40;;
4583;SDS011;2304;47.606;12.186;2023-07-31T18:54:42;7.50;;;3.23;;
4583;SDS011;2304;47.606;12.186;2023-07-31T18:59:44;5.57;;;3.23;;
4583;SDS011;2304;47.606;12.186;2023-07-31T19:04:47;5.93;;;2.60;;
4583;SDS011;2304;47.606;12.186;2023-07-31T19:09:49;8.60;;;3.00;;
4583;SDS011;2304;47.606;12.186;2023-07-31T19:14:51;6.07;;;3.67;;
4583;SDS011;2304;47.606;12.186;2023-07-31T19:19:54;8.20;;;3.40;;
4583;SDS011;2304;47.606;12.186;2023-07-31T19:24:56;6.73;;;3.87;;
4583;SDS011;2304;47.606;12.186;2023-07-31T19:29:58;5.60;;;3.33;;
4583;SDS011;2304;47.606;12.186;2023-07-31T19:35:01;6.73;;;3.10;;
4583;SDS011;2304;47.606;12.186;2023-07-31T19:40:04;4.73;;;3.03;;
4583;SDS011;2304;47.606;12.186;2023-07-31T19:45:07;6.30;;;3.60;;
4583;SDS011;2304;47.606;12.186;2023-07-31T19:50:11;10.27;;;3.40;;
4583;SDS011;2304;47.606;12.186;2023-07-31T19:55:13;4.63;;;3.33;;
4583;SDS011;2304;47.606;12.186;2023-07-31T20:00:15;3.77;;;2.97;;
4583;SDS011;2304;47.606;12.186;2023-07-31T20:05:19;6.87;;;3.00;;
4583;SDS011;2304;47.606;12.186;2023-07-31T20:10:21;10.10;;;3.97;;
4583;SDS011;2304;47.606;12.186;2023-07-31T20:15:23;6.50;;;3.63;;
4583;SDS011;2304;47.606;12.186;2023-07-31T20:20:26;5.17;;;3.00;;
4583;SDS011;2304;47.606;12.186;2023-07-31T20:25:28;5.93;;;3.80;;
4583;SDS011;2304;47.606;12.186;2023-07-31T20:30:32;4.80;;;3.47;;
4583;SDS011;2304;47.606;12.186;2023-07-31T20:35:36;7.73;;;3.73;;
4583;SDS011;2304;47.606;12.186;2023-07-31T20:40:38;5.30;;;3.23;;
4583;SDS011;2304;47.606;12.186;2023-07-31T20:45:40;6.33;;;3.40;;
4583;SDS011;2304;47.606;12.186;2023-07-31T20:50:43;8.73;;;3.40;;
4583;SDS011;2304;47.606;12.186;2023-07-31T20:55:46;6.20;;;3.00;;
4583;SDS011;2304;47.606;12.186;2023-07-31T21:00:48;7.27;;;3.40;;
4583;SDS011;2304;47.606;12.186;2023-07-31T21:05:51;7.80;;;3.37;;
4583;SDS011;2304;47.606;12.186;2023-07-31T21:10:54;7.37;;;4.23;;
4583;SDS011;2304;47.606;12.186;2023-07-31T21:15:56;5.10;;;3.43;;
4583;SDS011;2304;47.606;12.186;2023-07-31T21:21:00;4.13;;;3.00;;
4583;SDS011;2304;47.606;12.186;2023-07-31T21:26:02;5.33;;;3.80;;
4583;SDS011;2304;47.606;12.186;2023-07-31T21:31:10;5.70;;;3.63;;
4583;SDS011;2304;47.606;12.186;2023-07-31T21:36:14;6.37;;;3.53;;
4583;SDS011;2304;47.606;12.186;2023-07-31T21:41:16;9.87;;;3.93;;
4583;SDS011;2304;47.606;12.186;2023-07-31T21:46:18;4.43;;;3.43;;
4583;SDS011;2304;47.606;12.186;2023-07-31T21:51:21;5.90;;;3.43;;
4583;SDS011;2304;47.606;12.186;2023-07-31T21:56:23;7.53;;;3.77;;
4583;SDS011;2304;47.606;12.186;2023-07-31T22:01:25;6.77;;;3.80;;
4583;SDS011;2304;47.606;12.186;2023-07-31T22:06:28;9.10;;;4.47;;
4583;SDS011;2304;47.606;12.186;2023-07-31T22:11:30;6.37;;;3.57;;
4583;SDS011;2304;47.606;12.186;2023-07-31T22:16:31;8.53;;;4.13;;
4583;SDS011;2304;47.606;12.186;2023-07-31T22:21:36;7.00;;;3.40;;
4583;SDS011;2304;47.606;12.186;2023-07-31T22:26:38;7.73;;;3.70;;
4583;SDS011;2304;47.606;12.186;2023-07-31T22:31:40;6.07;;;3.30;;
4583;SDS011;2304;47.606;12.186;2023-07-31T22:36:43;5.67;;;4.07;;
4583;SDS011;2304;47.606;12.186;2023-07-31T22:41:45;5.40;;;3.57;;
4583;SDS011;2304;47.606;12.186;2023-07-31T22:46:47;8.83;;;3.83;;
4583;SDS011;2304;47.606;12.186;2023-07-31T22:51:50;7.23;;;4.00;;
4583;SDS011;2304;47.606;12.186;2023-07-31T22:56:52;7.80;;;4.73;;
4583;SDS011;2304;47.606;12.186;2023-07-31T23:01:55;6.40;;;3.80;;
4583;SDS011;2304;47.606;12.186;2023-07-31T23:06:58;5.13;;;3.60;;
4583;SDS011;2304;47.606;12.186;2023-07-31T23:12:00;6.73;;;3.40;;
4583;SDS011;2304;47.606;12.186;2023-07-31T23:17:02;6.50;;;3.40;;
4583;SDS011;2304;47.606;12.186;2023-07-31T23:22:06;7.83;;;3.63;;
4583;SDS011;2304;47.606;12.186;2023-07-31T23:27:08;6.70;;;3.70;;
4583;SDS011;2304;47.606;12.186;2023-07-31T23:32:10;6.10;;;3.50;;
4583;SDS011;2304;47.606;12.186;2023-07-31T23:37:16;7.00;;;3.87;;
4583;SDS011;2304;47.606;12.186;2023-07-31T23:42:18;7.17;;;3.67;;
4583;SDS011;2304;47.606;12.186;2023-07-31T23:47:20;6.07;;;3.23;;
